Time;durP1;ratioP1;P1;durP2;ratioP2;P2;SDS_P1;SDS_P2;PMS_P1;PMS_P2;Temp;Humidity;BMP_temperature;BMP_pressure;BME280_temperature;BME280_humidity;BME280_pressure;Samples;Min_cycle;Max_cycle;Signal;HPM_P1;HPM_P2
2020/12/03 00:00:41;;;;;;;8.25;4.63;;;8.10;99.90;;;;;;5036869;28;20041;-66
2020/12/03 00:03:20;;;;;;;5.35;3.88;;;8.00;99.90;;;;;;5036880;28;20026;-66
2020/12/03 00:05:55;;;;;;;6.80;4.47;;;8.10;99.90;;;;;;5037018;28;20048;-66
2020/12/03 00:08:22;;;;;;;6.07;3.97;;;8.10;99.90;;;;;;5036584;28;20026;-66
2020/12/03 00:10:48;;;;;;;4.30;3.78;;;8.20;99.90;;;;;;5036518;28;20037;-66
2020/12/03 00:13:22;;;;;;;10.85;6.35;;;8.10;99.90;;;;;;5036671;28;20098;-66
2020/12/03 00:15:54;;;;;;;6.22;4.85;;;8.00;99.90;;;;;;5036869;28;20060;-66
2020/12/03 00:18:20;;;;;;;6.43;4.28;;;8.10;99.90;;;;;;5036351;28;20512;-66
2020/12/03 00:20:46;;;;;;;10.43;5.18;;;7.90;99.90;;;;;;5036733;28;20066;-66
2020/12/03 00:23:12;;;;;;;5.32;4.45;;;7.60;99.90;;;;;;5036270;28;20040;-66
2020/12/03 00:25:38;;;;;;;;;;;7.90;99.90;;;;;;5036971;28;20021;-66
2020/12/03 00:28:05;;;;;;;5.28;4.40;;;8.10;99.90;;;;;;5036782;28;20254;-66
2020/12/03 00:30:31;;;;;;;7.45;3.95;;;7.70;99.90;;;;;;5036575;28;20030;-66
2020/12/03 00:32:57;;;;;;;;;;;7.80;99.90;;;;;;5036643;28;20083;-66
2020/12/03 00:35:24;;;;;;;8.35;4.63;;;7.70;99.90;;;;;;5035642;28;19956;-66
2020/12/03 00:37:51;;;;;;;7.50;4.82;;;7.70;99.90;;;;;;5036554;28;20030;-66
2020/12/03 00:40:18;;;;;;;9.45;4.60;;;7.70;99.90;;;;;;5036366;28;20018;-66
2020/12/03 00:42:44;;;;;;;6.20;4.22;;;7.90;99.90;;;;;;5036240;28;20025;-66
2020/12/03 00:45:11;;;;;;;;;;;7.70;99.90;;;;;;5037234;28;20381;-66
2020/12/03 00:47:39;;;;;;;7.78;3.42;;;7.80;99.90;;;;;;5036015;28;20404;-66
2020/12/03 00:50:07;;;;;;;5.55;3.20;;;7.80;99.90;;;;;;5036341;28;20030;-66
2020/12/03 00:52:33;;;;;;;6.85;3.65;;;7.70;99.90;;;;;;5036020;28;20034;-66
2020/12/03 00:54:58;;;;;;;;;;;7.70;99.90;;;;;;5036651;28;20036;-66
2020/12/03 00:57:24;;;;;;;9.73;3.42;;;7.90;99.90;;;;;;5036343;28;19905;-66
2020/12/03 00:59:50;;;;;;;;;;;7.80;99.90;;;;;;5036885;28;20026;-66
2020/12/03 01:02:16;;;;;;;4.63;2.70;;;7.70;99.90;;;;;;5036113;28;19951;-66
2020/12/03 01:04:42;;;;;;;5.50;3.42;;;7.80;99.90;;;;;;5036546;28;20509;-66
2020/12/03 01:07:09;;;;;;;8.82;3.42;;;7.70;99.90;;;;;;5036363;28;20033;-66
2020/12/03 01:09:37;;;;;;;8.43;3.47;;;7.70;99.90;;;;;;5029922;28;20053;-66
2020/12/03 01:12:08;;;;;;;11.30;3.63;;;7.80;99.90;;;;;;5036163;28;20045;-66
2020/12/03 01:14:35;;;;;;;12.30;3.22;;;7.60;99.90;;;;;;5036219;28;20025;-66
2020/12/03 01:17:10;;;;;;;8.20;3.00;;;7.80;99.90;;;;;;5035784;28;20026;-66
2020/12/03 01:19:37;;;;;;;5.72;3.13;;;7.70;99.90;;;;;;5035683;28;20068;-66
2020/12/03 01:22:03;;;;;;;10.60;2.85;;;7.80;99.90;;;;;;5036204;28;20032;-66
2020/12/03 01:24:29;;;;;;;7.15;3.08;;;7.70;99.90;;;;;;5035991;28;20040;-66
2020/12/03 01:26:55;;;;;;;8.75;3.20;;;7.70;99.90;;;;;;5036214;28;20033;-66
2020/12/03 01:29:24;;;;;;;4.32;2.60;;;7.60;99.90;;;;;;5035713;28;20033;-66
2020/12/03 01:31:51;;;;;;;5.45;2.80;;;7.70;99.90;;;;;;5036122;28;20033;-66
2020/12/03 01:34:18;;;;;;;10.25;3.47;;;7.50;99.90;;;;;;5035934;28;20022;-66
2020/12/03 01:36:47;;;;;;;6.05;2.78;;;7.60;99.90;;;;;;5035711;28;20026;-66
2020/12/03 01:39:13;;;;;;;9.85;3.47;;;7.60;99.90;;;;;;5035613;28;20025;-66
2020/12/03 01:41:39;;;;;;;;;;;7.60;99.90;;;;;;5036262;28;20022;-66
2020/12/03 01:44:06;;;;;;;5.30;2.65;;;7.70;99.90;;;;;;5036195;28;19909;-66
2020/12/03 01:46:32;;;;;;;5.07;2.25;;;7.50;99.90;;;;;;5037521;28;20108;-66
2020/12/03 01:49:13;;;;;;;5.35;2.60;;;7.60;99.90;;;;;;5039260;28;20052;-66
2020/12/03 01:51:42;;;;;;;6.68;2.60;;;7.60;99.90;;;;;;5039306;28;20036;-66
2020/12/03 01:54:12;;;;;;;11.38;3.65;;;7.60;99.90;;;;;;5039215;28;20025;-66
2020/12/03 01:57:05;;;;;;;7.05;4.20;;;7.50;99.90;;;;;;5039149;28;20026;-66
2020/12/03 01:59:42;;;;;;;8.45;3.10;;;7.60;99.90;;;;;;5039077;28;20488;-66
2020/12/03 02:02:13;;;;;;;9.25;3.03;;;7.40;99.90;;;;;;5039078;28;20041;-66
2020/12/03 02:04:39;;;;;;;8.23;3.47;;;7.40;99.90;;;;;;5038560;28;20030;-66
2020/12/03 02:07:06;;;;;;;;;;;7.40;99.90;;;;;;5039347;28;20029;-66
2020/12/03 02:09:32;;;;;;;8.55;2.63;;;7.30;99.90;;;;;;5038649;28;19951;-66
2020/12/03 02:11:58;;;;;;;;;;;7.40;99.90;;;;;;5039226;28;20041;-66
2020/12/03 02:14:24;;;;;;;5.53;2.78;;;7.30;99.90;;;;;;5038678;28;19915;-66
2020/12/03 02:16:50;;;;;;;6.85;2.97;;;7.40;99.90;;;;;;5038370;28;20033;-66
2020/12/03 02:19:21;;;;;;;;;;;7.20;99.90;;;;;;5039323;28;20030;-66
2020/12/03 02:21:59;;;;;;;10.48;2.20;;;7.40;99.90;;;;;;5038798;28;19905;-65
2020/12/03 02:24:26;;;;;;;6.53;2.15;;;7.30;99.90;;;;;;5038469;28;20113;-66
2020/12/03 02:26:52;;;;;;;6.10;2.15;;;7.30;99.90;;;;;;5039051;28;20022;-66
2020/12/03 02:29:19;;;;;;;;;;;7.40;99.90;;;;;;5038673;28;20043;-66
2020/12/03 02:31:46;;;;;;;6.75;3.05;;;7.40;99.90;;;;;;5038580;28;20377;-66
2020/12/03 02:34:12;;;;;;;8.73;2.20;;;7.40;99.90;;;;;;5038494;28;20505;-66
2020/12/03 02:36:37;;;;;;;;;;;7.30;99.90;;;;;;5038898;28;20057;-66
2020/12/03 02:39:04;;;;;;;7.72;2.35;;;7.60;99.90;;;;;;5038157;28;19905;-66
2020/12/03 02:41:30;;;;;;;12.07;2.75;;;7.50;99.90;;;;;;5038600;28;20060;-66
2020/12/03 02:43:56;;;;;;;;;;;7.40;99.90;;;;;;5039073;28;20025;-66
2020/12/03 02:46:21;;;;;;;10.23;2.28;;;7.30;99.90;;;;;;5037871;28;19913;-66
2020/12/03 02:48:47;;;;;;;;;;;7.30;99.90;;;;;;5038995;28;20505;-66
2020/12/03 02:51:14;;;;;;;8.43;2.90;;;7.50;99.90;;;;;;5038254;28;20368;-66
2020/12/03 02:53:40;;;;;;;4.93;2.67;;;7.30;99.90;;;;;;5037880;28;20026;-66
2020/12/03 02:56:06;;;;;;;;;;;7.20;99.90;;;;;;5038388;28;20021;-66
2020/12/03 02:58:32;;;;;;;9.77;3.63;;;7.10;99.90;;;;;;5037471;28;19909;-66
2020/12/03 03:00:57;;;;;;;;;;;7.10;99.90;;;;;;5037799;28;20091;-66
2020/12/03 03:03:23;;;;;;;4.07;2.38;;;7.20;99.90;;;;;;5037784;28;19905;-65
2020/12/03 03:05:49;;;;;;;;;;;7.20;99.90;;;;;;5038415;28;20120;-66
2020/12/03 03:08:15;;;;;;;9.48;4.05;;;7.20;99.90;;;;;;5037408;28;20265;-66
2020/12/03 03:10:41;;;;;;;11.93;4.68;;;7.20;99.90;;;;;;5027412;28;20076;-66
2020/12/03 03:13:07;;;;;;;;;;;7.20;99.90;;;;;;5038144;28;20029;-66
2020/12/03 03:15:33;;;;;;;9.85;3.90;;;7.30;99.90;;;;;;5036005;28;19917;-66
2020/12/03 03:17:58;;;;;;;;;;;7.20;99.90;;;;;;5038022;28;20029;-66
2020/12/03 03:20:24;;;;;;;8.93;3.63;;;7.10;99.90;;;;;;5037299;28;20387;-66
2020/12/03 03:22:50;;;;;;;;;;;7.20;99.90;;;;;;5037693;28;20025;-66
2020/12/03 03:25:16;;;;;;;5.75;3.40;;;7.10;99.90;;;;;;5037472;28;19905;-66
2020/12/03 03:27:41;;;;;;;;;;;7.30;99.90;;;;;;5038365;28;20116;-66
2020/12/03 03:30:08;;;;;;;8.27;3.50;;;7.30;99.90;;;;;;5036927;28;19911;-66
2020/12/03 03:32:35;;;;;;;8.38;3.83;;;7.10;99.90;;;;;;5037496;28;20039;-66
2020/12/03 03:35:02;;;;;;;7.90;3.33;;;7.20;99.90;;;;;;5036990;28;20539;-66
2020/12/03 03:37:28;;;;;;;9.77;4.32;;;7.20;99.90;;;;;;5037364;28;20420;-66
2020/12/03 03:39:54;;;;;;;;;;;7.20;99.90;;;;;;5036705;28;20025;-66
2020/12/03 03:42:20;;;;;;;7.68;3.17;;;7.30;99.90;;;;;;5037553;28;19958;-66
2020/12/03 03:44:45;;;;;;;;;;;7.10;99.90;;;;;;5037275;28;20037;-66
2020/12/03 03:47:11;;;;;;;11.27;3.17;;;7.00;99.90;;;;;;5037357;28;19944;-66
2020/12/03 03:49:37;;;;;;;;;;;6.90;99.90;;;;;;5037549;28;20035;-66
2020/12/03 03:52:03;;;;;;;7.78;3.05;;;7.10;99.90;;;;;;5036618;28;19913;-66
2020/12/03 03:54:29;;;;;;;;;;;7.20;99.90;;;;;;5036861;28;20383;-66
2020/12/03 03:56:55;;;;;;;6.90;2.50;;;7.00;99.90;;;;;;5037205;28;19912;-66
2020/12/03 03:59:20;;;;;;;;;;;7.10;99.90;;;;;;5037293;28;20025;-66
2020/12/03 04:01:46;;;;;;;7.25;2.88;;;7.00;99.90;;;;;;5036886;28;19911;-66
2020/12/03 04:04:12;;;;;;;;;;;7.10;99.90;;;;;;5037417;28;20033;-66
2020/12/03 04:06:38;;;;;;;5.95;2.55;;;7.20;99.90;;;;;;5036449;28;19917;-66
2020/12/03 04:09:04;;;;;;;;;;;7.10;99.90;;;;;;5035991;28;20045;-66
2020/12/03 04:11:30;;;;;;;8.35;2.83;;;7.20;99.90;;;;;;5036808;28;20016;-66
2020/12/03 04:13:55;;;;;;;;;;;7.00;99.90;;;;;;5037421;28;20107;-66
2020/12/03 04:16:21;;;;;;;10.70;2.38;;;7.00;99.90;;;;;;5036234;28;20397;-66
2020/12/03 04:18:47;;;;;;;;;;;7.10;99.90;;;;;;5037291;28;20013;-66
2020/12/03 04:21:16;;;;;;;5.45;2.88;;;7.00;99.90;;;;;;5036684;28;19905;-66
2020/12/03 04:23:43;;;;;;;7.57;2.67;;;7.10;99.90;;;;;;5036720;28;20018;-66
2020/12/03 04:26:10;;;;;;;5.40;2.30;;;7.10;99.90;;;;;;5036423;28;20037;-66
2020/12/03 04:28:36;;;;;;;5.15;2.35;;;7.00;99.90;;;;;;5036827;28;20086;-66
2020/12/03 04:31:02;;;;;;;;;;;7.00;99.90;;;;;;5036840;28;20037;-66
2020/12/03 04:33:28;;;;;;;6.95;2.95;;;7.10;99.90;;;;;;5036688;28;19905;-66
2020/12/03 04:35:53;;;;;;;;;;;6.90;99.90;;;;;;5036472;28;20385;-66
2020/12/03 04:38:19;;;;;;;7.55;3.22;;;7.00;99.90;;;;;;5035850;28;19909;-66
2020/12/03 04:40:46;;;;;;;13.95;3.45;;;7.00;99.90;;;;;;5036654;28;20022;-65
2020/12/03 04:43:24;;;;;;;6.78;2.95;;;7.10;99.90;;;;;;5036853;28;20060;-66
2020/12/03 04:46:21;;;;;;;6.05;2.83;;;7.10;99.90;;;;;;5036384;28;20524;-66
2020/12/03 04:48:58;;;;;;;7.80;2.50;;;7.00;99.90;;;;;;5033567;28;20026;-66
2020/12/03 04:51:38;;;;;;;8.77;2.50;;;7.10;99.90;;;;;;5036346;28;20477;-66
2020/12/03 04:54:26;;;;;;;11.80;3.10;;;7.20;99.90;;;;;;5023670;28;20030;-66
2020/12/03 04:57:03;;;;;;;4.15;2.25;;;7.00;99.90;;;;;;5036321;28;20382;-66
2020/12/03 04:59:37;;;;;;;4.20;2.08;;;6.90;99.90;;;;;;5036009;28;20040;-66
2020/12/03 05:02:37;;;;;;;4.45;2.30;;;7.10;99.90;;;;;;5036032;28;20485;-65
2020/12/03 05:05:27;;;;;;;4.13;1.85;;;7.00;99.90;;;;;;5036522;28;20036;-66
2020/12/03 05:08:02;;;;;;;6.00;2.15;;;7.00;99.90;;;;;;5023404;28;20075;-66
2020/12/03 05:10:47;;;;;;;6.38;2.53;;;7.20;99.90;;;;;;5035925;28;20052;-66
2020/12/03 05:13:20;;;;;;;4.93;2.22;;;6.90;99.90;;;;;;5036454;28;20037;-66
2020/12/03 05:15:49;;;;;;;7.22;2.08;;;7.10;99.90;;;;;;5036255;28;20025;-66
2020/12/03 05:18:56;;;;;;;4.20;2.22;;;7.00;99.90;;;;;;5035993;28;20029;-66
2020/12/03 05:21:26;;;;;;;8.27;2.17;;;6.90;99.90;;;;;;5036906;28;20046;-66
2020/12/03 05:23:52;;;;;;;3.70;1.80;;;6.90;99.90;;;;;;5039796;28;20033;-66
2020/12/03 05:26:19;;;;;;;;;;;7.00;99.90;;;;;;5040268;28;20021;-66
2020/12/03 05:28:58;;;;;;;4.20;1.80;;;7.00;99.90;;;;;;5040209;28;19909;-66
2020/12/03 05:31:27;;;;;;;9.68;2.53;;;7.10;99.90;;;;;;5026655;28;20052;-66
2020/12/03 05:33:56;;;;;;;10.38;2.45;;;6.80;99.90;;;;;;5039399;28;20485;-66
2020/12/03 05:36:32;;;;;;;4.80;1.88;;;6.90;99.90;;;;;;5039781;28;20025;-66
2020/12/03 05:39:00;;;;;;;6.22;4.63;;;6.90;99.90;;;;;;5039533;28;20501;-66
2020/12/03 05:41:30;;;;;;;9.55;4.07;;;6.90;99.90;;;;;;5039523;28;20125;-66
2020/12/03 05:43:56;;;;;;;8.98;3.95;;;6.90;99.90;;;;;;5039236;28;20032;-66
2020/12/03 05:46:22;;;;;;;;;;;6.90;99.90;;;;;;5039910;28;20021;-66
2020/12/03 05:49:00;;;;;;;5.05;1.75;;;6.90;99.90;;;;;;5038776;28;19909;-66
2020/12/03 05:51:30;;;;;;;5.80;2.08;;;7.00;99.90;;;;;;5039341;28;20224;-66
2020/12/03 05:54:02;;;;;;;9.50;2.35;;;7.00;99.90;;;;;;5038870;28;20108;-66
2020/12/03 05:56:30;;;;;;;7.50;3.10;;;7.10;99.90;;;;;;5039345;28;20041;-66
2020/12/03 05:59:12;;;;;;;5.00;2.00;;;6.90;99.90;;;;;;5039226;28;20028;-66
2020/12/03 06:01:46;;;;;;;7.85;1.95;;;7.10;99.90;;;;;;5035858;28;20040;-66
2020/12/03 06:04:23;;;;;;;6.22;2.00;;;7.00;99.90;;;;;;5038380;28;20026;-66
2020/12/03 06:07:05;;;;;;;7.38;2.08;;;7.20;99.90;;;;;;5037838;28;20047;-66
2020/12/03 06:09:50;;;;;;;7.15;1.92;;;7.00;99.90;;;;;;5035434;28;20056;-66
2020/12/03 06:12:43;;;;;;;11.30;2.50;;;7.00;99.90;;;;;;5038290;28;20044;-66
2020/12/03 06:15:34;;;;;;;4.05;1.85;;;7.00;99.90;;;;;;5027296;28;20013;-66
2020/12/03 06:18:12;;;;;;;5.97;3.05;;;6.90;99.90;;;;;;5038273;28;20092;-66
2020/12/03 06:21:07;;;;;;;9.93;2.25;;;7.00;99.90;;;;;;5037650;28;20517;-66
2020/12/03 06:23:54;;;;;;;4.70;2.30;;;7.10;99.90;;;;;;5036785;28;20488;-66
2020/12/03 06:26:50;;;;;;;6.78;2.13;;;7.10;99.90;;;;;;5038772;28;20025;-67
2020/12/03 06:29:32;;;;;;;8.05;2.42;;;7.10;99.90;;;;;;5038727;28;20151;-66
2020/12/03 06:32:22;;;;;;;4.28;1.83;;;7.00;99.90;;;;;;5037999;28;20022;-66
2020/12/03 06:35:18;;;;;;;9.43;2.08;;;7.10;99.90;;;;;;5038766;28;20076;-66
2020/12/03 06:37:58;;;;;;;7.22;2.30;;;7.10;99.90;;;;;;5037180;28;20113;-66
2020/12/03 06:40:34;;;;;;;6.75;2.00;;;7.10;99.90;;;;;;5038641;28;20024;-66
2020/12/03 06:43:30;;;;;;;3.72;1.60;;;7.00;99.90;;;;;;5038674;28;20025;-66
2020/12/03 06:46:15;;;;;;;9.65;2.35;;;7.00;99.90;;;;;;5038308;28;20087;-66
2020/12/03 06:49:09;;;;;;;7.65;2.40;;;7.10;99.90;;;;;;5038444;28;20031;-66
2020/12/03 06:52:23;;;;;;;11.90;2.90;;;6.90;99.90;;;;;;5038445;28;20065;-66
2020/12/03 06:54:55;;;;;;;16.98;2.75;;;7.10;99.90;;;;;;5036046;28;20585;-66
2020/12/03 06:57:30;;;;;;;10.40;2.50;;;7.00;99.90;;;;;;5036089;28;20025;-66
2020/12/03 07:00:26;;;;;;;11.27;2.30;;;7.00;99.90;;;;;;5037315;28;20036;-66
2020/12/03 07:03:24;;;;;;;9.48;2.88;;;7.10;99.90;;;;;;5024947;28;20113;-66
2020/12/03 07:06:29;;;;;;;9.45;2.40;;;7.00;99.90;;;;;;5037387;28;20458;-67
2020/12/03 07:09:22;;;;;;;6.07;2.33;;;7.00;99.90;;;;;;5037438;28;20409;-66
2020/12/03 07:12:26;;;;;;;2.67;1.60;;;7.00;99.90;;;;;;5027923;28;20029;-66
2020/12/03 07:15:10;;;;;;;9.32;2.22;;;7.10;99.90;;;;;;5024518;28;20388;-66
2020/12/03 07:18:15;;;;;;;5.10;2.28;;;6.90;99.90;;;;;;5037827;28;20482;-66
2020/12/03 07:21:11;;;;;;;7.97;2.90;;;6.90;99.90;;;;;;5036496;28;20121;-66
2020/12/03 07:23:47;;;;;;;9.38;2.25;;;6.90;99.90;;;;;;5037652;28;20024;-66
2020/12/03 07:26:50;;;;;;;6.60;1.67;;;6.80;99.90;;;;;;5038292;28;20022;-67
2020/12/03 07:29:40;;;;;;;6.70;2.25;;;6.80;99.90;;;;;;5037800;28;20493;-67
2020/12/03 07:32:31;;;;;;;10.88;2.30;;;6.80;99.90;;;;;;5037348;28;20022;-67
2020/12/03 07:35:25;;;;;;;4.68;2.58;;;6.90;99.90;;;;;;5037653;28;20035;-66
2020/12/03 07:38:09;;;;;;;12.77;2.90;;;6.90;99.90;;;;;;5037344;28;20079;-67
2020/12/03 07:40:35;;;;;;;8.55;2.97;;;6.70;99.90;;;;;;5037378;28;20025;-66
2020/12/03 07:43:02;;;;;;;;;;;6.60;99.90;;;;;;5037817;28;20084;-67
2020/12/03 07:45:43;;;;;;;8.93;2.83;;;6.90;99.90;;;;;;5037041;28;19912;-66
2020/12/03 07:48:11;;;;;;;8.43;2.72;;;6.80;99.90;;;;;;5037423;28;20117;-66
2020/12/03 07:51:02;;;;;;;6.82;2.00;;;6.80;99.90;;;;;;5037453;28;20512;-66
2020/12/03 07:53:32;;;;;;;8.65;2.13;;;7.10;99.90;;;;;;5036915;28;20100;-66
2020/12/03 07:55:58;;;;;;;8.43;2.20;;;6.70;99.90;;;;;;5037220;28;20544;-66
2020/12/03 07:58:32;;;;;;;;;;;6.80;99.90;;;;;;5037448;28;20074;-66
2020/12/03 08:00:58;;;;;;;12.70;2.17;;;6.90;99.90;;;;;;5036707;28;19909;-66
2020/12/03 08:03:40;;;;;;;10.90;4.28;;;6.80;99.90;;;;;;5024234;28;20552;-66
2020/12/03 08:06:22;;;;;;;6.47;2.30;;;6.90;99.90;;;;;;5036961;28;20022;-67
2020/12/03 08:09:04;;;;;;;9.57;2.22;;;7.00;99.90;;;;;;5036611;28;20029;-67
2020/12/03 08:12:05;;;;;;;12.40;2.42;;;7.00;99.90;;;;;;5024028;28;20029;-66
2020/12/03 08:14:53;;;;;;;8.65;2.63;;;7.00;99.90;;;;;;5036731;28;20060;-66
2020/12/03 08:17:22;;;;;;;11.25;3.55;;;7.00;99.90;;;;;;5036776;28;20096;-66
2020/12/03 08:20:00;;;;;;;13.18;3.90;;;7.00;99.90;;;;;;5036942;28;20532;-66
2020/12/03 08:22:43;;;;;;;8.30;2.55;;;7.00;99.90;;;;;;5036471;28;20064;-66
2020/12/03 08:25:24;;;;;;;7.78;2.63;;;7.00;99.90;;;;;;5036927;28;20397;-66
2020/12/03 08:28:00;;;;;;;8.73;2.65;;;6.90;99.90;;;;;;5024844;28;20032;-66
2020/12/03 08:30:36;;;;;;;9.65;2.00;;;7.00;99.90;;;;;;5036517;28;20026;-67
2020/12/03 08:33:15;;;;;;;8.65;2.88;;;7.10;99.90;;;;;;5036722;28;20071;-66
2020/12/03 08:35:48;;;;;;;9.82;2.83;;;7.10;99.90;;;;;;5036565;28;20034;-66
2020/12/03 08:38:15;;;;;;;4.07;2.25;;;7.20;99.90;;;;;;5036674;28;20101;-66
2020/12/03 08:40:40;;;;;;;7.57;2.03;;;7.30;99.90;;;;;;5036685;28;20025;-67
2020/12/03 08:43:10;;;;;;;;;;;7.40;99.90;;;;;;5037058;28;20091;-66
2020/12/03 08:45:46;;;;;;;16.42;2.47;;;7.50;99.90;;;;;;5036432;28;19905;-67
2020/12/03 08:48:19;;;;;;;8.38;1.85;;;7.50;99.90;;;;;;5036773;28;20037;-66
2020/12/03 08:50:45;;;;;;;6.00;2.00;;;7.70;99.90;;;;;;5036736;28;20026;-66
2020/12/03 08:53:12;;;;;;;;;;;7.60;99.90;;;;;;5036589;28;20025;-67
2020/12/03 08:55:39;;;;;;;7.32;1.80;;;7.70;99.90;;;;;;5037431;28;20323;-67
2020/12/03 08:58:06;;;;;;;7.43;1.65;;;7.80;99.90;;;;;;5040604;28;20032;-66
2020/12/03 09:00:39;;;;;;;9.20;2.40;;;7.70;99.90;;;;;;5040387;28;20046;-67
2020/12/03 09:03:05;;;;;;;7.07;1.77;;;7.70;99.90;;;;;;5027206;28;20029;-67
2020/12/03 09:05:32;;;;;;;6.93;2.35;;;7.70;99.90;;;;;;5040438;28;20432;-67
2020/12/03 09:07:59;;;;;;;8.10;1.80;;;7.70;99.90;;;;;;5040092;28;20026;-67
2020/12/03 09:10:26;;;;;;;3.28;1.50;;;7.70;99.90;;;;;;5039910;28;20406;-67
2020/12/03 09:12:52;;;;;;;6.22;1.88;;;7.90;99.90;;;;;;5040114;28;20083;-67
2020/12/03 09:15:19;;;;;;;7.50;1.85;;;7.80;99.90;;;;;;5040128;28;20018;-67
2020/12/03 09:17:51;;;;;;;11.68;1.77;;;7.90;99.90;;;;;;5040284;28;20551;-67
2020/12/03 09:20:17;;;;;;;6.55;1.60;;;7.90;99.90;;;;;;5040072;28;20036;-67
2020/12/03 09:22:43;;;;;;;;;;;8.00;99.90;;;;;;5040235;28;20029;-67
2020/12/03 09:25:10;;;;;;;5.38;1.90;;;7.90;99.90;;;;;;5040342;28;19912;-67
2020/12/03 09:27:41;;;;;;;9.80;1.55;;;7.90;99.90;;;;;;5039846;28;20025;-67
2020/12/03 09:30:16;;;;;;;4.70;1.50;;;8.00;99.90;;;;;;5039844;28;20040;-67
2020/12/03 09:32:46;;;;;;;6.57;1.60;;;8.00;99.90;;;;;;5039929;28;20032;-67
2020/12/03 09:35:12;;;;;;;11.43;2.83;;;8.00;99.90;;;;;;5039773;28;20478;-67
2020/12/03 09:37:38;;;;;;;5.95;1.80;;;8.00;99.90;;;;;;5039774;28;20048;-66
2020/12/03 09:40:06;;;;;;;;;;;8.10;99.90;;;;;;5040158;28;20048;-67
2020/12/03 09:42:41;;;;;;;6.20;1.70;;;8.20;99.90;;;;;;5039831;28;19905;-67
2020/12/03 09:45:11;;;;;;;4.30;1.70;;;8.20;99.90;;;;;;5039697;28;20034;-67
2020/12/03 09:47:39;;;;;;;5.63;1.45;;;8.10;99.90;;;;;;5039744;28;20548;-67
2020/12/03 09:50:05;;;;;;;10.15;2.10;;;8.20;99.90;;;;;;5039606;28;20029;-67
2020/12/03 09:52:35;;;;;;;5.05;1.63;;;8.30;99.90;;;;;;5039183;28;20801;-67
2020/12/03 09:55:15;;;;;;;8.63;2.17;;;8.30;99.90;;;;;;5039429;28;20026;-67
2020/12/03 09:57:51;;;;;;;7.53;1.83;;;8.50;99.90;;;;;;5039386;28;20371;-67
2020/12/03 10:00:24;;;;;;;7.85;1.60;;;8.70;99.90;;;;;;5027677;28;20517;-67
2020/12/03 10:03:23;;;;;;;4.50;1.50;;;8.40;99.90;;;;;;5025855;28;20033;-67
2020/12/03 10:06:20;;;;;;;5.95;1.52;;;8.60;99.90;;;;;;5039196;28;20033;-67
2020/12/03 10:09:08;;;;;;;6.32;1.35;;;8.50;99.90;;;;;;5039139;28;20034;-67
2020/12/03 10:11:59;;;;;;;6.10;1.10;;;8.70;99.90;;;;;;5026604;28;20031;-67
2020/12/03 10:14:48;;;;;;;5.22;1.10;;;8.60;99.90;;;;;;5039255;28;20025;-67
2020/12/03 10:17:17;;;;;;;6.13;1.05;;;8.60;99.90;;;;;;5039040;28;20053;-67
2020/12/03 10:19:44;;;;;;;7.65;1.33;;;8.50;99.90;;;;;;5039278;28;20033;-67
2020/12/03 10:22:23;;;;;;;9.95;3.15;;;8.70;99.90;;;;;;5038794;28;20030;-67
2020/12/03 10:24:54;;;;;;;9.68;1.25;;;8.70;99.90;;;;;;5039078;28;20508;-67
2020/12/03 10:27:46;;;;;;;7.53;2.05;;;8.80;99.90;;;;;;5038884;28;20464;-67
2020/12/03 10:30:38;;;;;;;10.02;1.52;;;8.80;99.90;;;;;;5037884;28;20046;-67
2020/12/03 10:33:11;;;;;;;10.75;2.13;;;8.70;99.90;;;;;;5038689;28;20033;-67
2020/12/03 10:35:43;;;;;;;9.55;1.33;;;8.70;99.90;;;;;;5038766;28;20030;-67
2020/12/03 10:38:34;;;;;;;6.32;3.35;;;8.80;99.90;;;;;;5038779;28;20061;-67
2020/12/03 10:41:02;;;;;;;4.47;1.70;;;8.80;99.90;;;;;;5027534;28;20029;-67
2020/12/03 10:43:33;;;;;;;10.02;2.03;;;8.80;99.90;;;;;;5038619;28;20024;-67
2020/12/03 10:46:04;;;;;;;13.27;2.38;;;8.80;99.90;;;;;;5038597;28;20436;-67
2020/12/03 10:48:35;;;;;;;9.65;2.13;;;8.90;99.90;;;;;;5038447;28;20100;-67
2020/12/03 10:51:07;;;;;;;11.88;2.05;;;8.80;99.90;;;;;;5038411;28;20044;-67
2020/12/03 10:53:34;;;;;;;6.40;1.85;;;9.00;99.90;;;;;;5038086;28;20037;-67
2020/12/03 10:56:02;;;;;;;12.38;2.13;;;8.80;99.90;;;;;;5038301;28;20116;-67
2020/12/03 10:58:58;;;;;;;4.85;1.58;;;9.00;99.90;;;;;;5038297;28;20075;-67
2020/12/03 11:01:28;;;;;;;7.40;1.52;;;8.90;99.90;;;;;;5034175;28;20033;-67
2020/12/03 11:03:58;;;;;;;8.25;1.92;;;9.00;99.90;;;;;;5029383;28;20441;-67
2020/12/03 11:06:32;;;;;;;6.78;1.65;;;8.90;99.90;;;;;;5038153;28;20027;-67
2020/12/03 11:08:59;;;;;;;10.30;1.90;;;8.90;99.90;;;;;;5037523;28;20521;-67
2020/12/03 11:11:33;;;;;;;6.80;2.00;;;9.10;99.90;;;;;;5037705;28;20033;-67
2020/12/03 11:14:07;;;;;;;6.00;1.17;;;9.00;99.90;;;;;;5037958;28;20033;-67
2020/12/03 11:16:36;;;;;;;6.18;1.85;;;9.20;99.90;;;;;;5037929;28;20017;-67
2020/12/03 11:19:08;;;;;;;4.18;1.63;;;9.10;99.90;;;;;;5037546;28;20064;-67
2020/12/03 11:21:38;;;;;;;6.75;1.80;;;9.20;99.90;;;;;;5037889;28;20155;-67
2020/12/03 11:24:22;;;;;;;7.38;1.80;;;9.20;99.90;;;;;;5037661;28;20026;-67
2020/12/03 11:26:50;;;;;;;10.15;1.95;;;9.20;99.90;;;;;;5037908;28;20492;-67
2020/12/03 11:29:17;;;;;;;8.43;1.90;;;9.30;99.90;;;;;;5037622;28;20028;-67
2020/12/03 11:31:43;;;;;;;10.50;1.75;;;9.30;99.90;;;;;;5037788;28;20382;-67
2020/12/03 11:34:10;;;;;;;10.68;1.73;;;9.30;99.90;;;;;;5037917;28;20053;-67
2020/12/03 11:36:38;;;;;;;8.85;2.47;;;9.50;99.90;;;;;;5037640;28;20025;-67
2020/12/03 11:39:06;;;;;;;4.53;1.58;;;9.30;99.90;;;;;;5024663;28;20060;-67
2020/12/03 11:47:22;;;;;;;7.07;2.03;;;9.20;99.90;;;;;;5037105;28;20040;-67
2020/12/03 11:49:39;;;;;;;7.63;1.98;;;9.30;99.90;;;;;;5037149;28;20068;-67
2020/12/03 11:52:11;;;;;;;;;;;9.20;99.90;;;;;;5037870;28;20481;-67
2020/12/03 11:54:37;;;;;;;12.35;2.03;;;9.50;99.90;;;;;;5037329;28;19908;-67
2020/12/03 11:57:04;;;;;;;4.13;1.25;;;9.40;99.90;;;;;;5037455;28;20032;-67
2020/12/03 11:59:34;;;;;;;5.57;2.05;;;9.40;99.90;;;;;;5036970;28;20033;-67
2020/12/03 12:02:05;;;;;;;15.73;3.08;;;9.40;99.90;;;;;;5028437;28;20032;-67
2020/12/03 12:12:18;;;;;;;;;;;9.40;99.90;;;;;;5037381;28;20049;-67
2020/12/03 12:14:44;;;;;;;7.47;2.05;;;9.30;99.90;;;;;;5037018;28;20424;-67
2020/12/03 12:17:10;;;;;;;6.43;1.90;;;9.40;99.90;;;;;;5036571;28;20032;-67
2020/12/03 12:19:37;;;;;;;;;;;9.40;99.90;;;;;;5037457;28;20018;-67
2020/12/03 12:22:04;;;;;;;7.63;2.00;;;9.40;99.90;;;;;;5036755;28;19905;-67
2020/12/03 12:24:30;;;;;;;7.53;1.80;;;9.30;99.90;;;;;;5036891;28;20060;-67
2020/12/03 12:26:56;;;;;;;;;;;9.40;99.90;;;;;;5037161;28;20025;-67
2020/12/03 12:29:22;;;;;;;12.30;2.22;;;9.30;99.90;;;;;;5036651;28;20284;-67
2020/12/03 12:31:48;;;;;;;8.50;1.50;;;9.50;99.90;;;;;;5035842;28;20029;-67
2020/12/03 12:34:13;;;;;;;;;;;9.60;99.90;;;;;;5037379;28;20025;-67
2020/12/03 12:36:39;;;;;;;7.72;1.30;;;9.50;99.90;;;;;;5036752;28;19905;-67
2020/12/03 12:39:05;;;;;;;;;;;9.30;99.90;;;;;;5036851;28;20036;-67
2020/12/03 12:41:31;;;;;;;4.35;1.90;;;9.20;99.90;;;;;;5036540;28;20003;-67
2020/12/03 12:43:57;;;;;;;;;;;9.20;99.90;;;;;;5037195;28;20105;-67
2020/12/03 12:46:24;;;;;;;3.53;2.22;;;9.10;99.90;;;;;;5036372;28;19916;-67
2020/12/03 12:48:51;;;;;;;6.18;3.10;;;9.10;99.90;;;;;;5036632;28;20029;-67
2020/12/03 12:51:18;;;;;;;6.18;2.30;;;9.00;99.90;;;;;;5036433;28;20029;-67
2020/12/03 12:53:44;;;;;;;4.70;1.98;;;9.10;99.90;;;;;;5036666;28;20028;-67
2020/12/03 12:56:11;;;;;;;7.68;1.85;;;8.90;99.90;;;;;;5036396;28;20018;-67
2020/12/03 12:58:37;;;;;;;4.22;1.52;;;9.10;99.90;;;;;;5036705;28;20032;-67
2020/12/03 13:01:04;;;;;;;10.05;1.65;;;9.00;99.90;;;;;;5035159;28;20028;-67
2020/12/03 13:03:30;;;;;;;8.18;1.50;;;8.90;99.90;;;;;;5024693;28;20017;-67
2020/12/03 13:05:58;;;;;;;6.07;1.40;;;8.90;99.90;;;;;;5036321;28;20478;-67
2020/12/03 13:08:24;;;;;;;3.35;1.58;;;8.80;99.90;;;;;;5036246;28;20026;-67
2020/12/03 13:10:50;;;;;;;5.88;1.42;;;9.00;99.90;;;;;;5036043;28;20076;-67
2020/12/03 13:13:16;;;;;;;;;;;8.80;99.90;;;;;;5037021;28;20026;-67
2020/12/03 13:15:42;;;;;;;4.05;1.27;;;8.90;99.90;;;;;;5036249;28;19915;-67
2020/12/03 13:18:08;;;;;;;;;;;8.80;99.90;;;;;;5036940;28;20387;-67
2020/12/03 13:20:33;;;;;;;5.18;1.33;;;8.70;99.90;;;;;;5036277;28;19980;-67
2020/12/03 13:22:59;;;;;;;6.07;1.30;;;8.90;99.90;;;;;;5036069;28;20103;-67
2020/12/03 13:25:25;;;;;;;;;;;8.90;99.90;;;;;;5036599;28;20022;-67
2020/12/03 13:27:51;;;;;;;4.50;1.30;;;8.70;99.90;;;;;;5036423;28;19906;-67
2020/12/03 13:30:17;;;;;;;;;;;8.80;99.90;;;;;;5036568;28;20029;-67
2020/12/03 13:32:42;;;;;;;5.18;1.17;;;8.70;99.90;;;;;;5036337;28;20281;-67
2020/12/03 13:35:08;;;;;;;13.35;2.33;;;8.80;99.90;;;;;;5036242;28;20014;-67
2020/12/03 13:37:34;;;;;;;;;;;8.80;99.90;;;;;;5036397;28;20853;-67
2020/12/03 13:40:00;;;;;;;5.45;1.45;;;8.90;99.90;;;;;;5036145;28;19905;-67
2020/12/03 13:42:26;;;;;;;8.73;2.10;;;8.90;99.90;;;;;;5038156;28;20482;-67
2020/12/03 13:44:51;;;;;;;;;;;8.80;99.90;;;;;;5040166;28;20025;-67
2020/12/03 13:47:17;;;;;;;9.13;1.67;;;8.90;99.90;;;;;;5039690;28;20368;-67
2020/12/03 13:49:43;;;;;;;;;;;8.90;99.90;;;;;;5040187;28;20063;-67